• Join FlightAware (Why Join?)
  • Login
  • US Flag 
06:59PM EST


 

Airport Tracker/Info


-or-


 

Live Flight TrackerFlight Track Log ✈ SKW5339 ✈ 04-May-2013 ✈ KRDM - KPDX

Flight Track Log - Related Links

Times and Time Zones

All times are in EDT time to prevent confusion due to time zone crossing. See the SKW5339 flight status page for this flight to view local times or setup timezone preferences in your user account.

Time Position Orientation Groundspeed Altitude Reporting Facility
EDT Latitude Longitude Course Direction KTS MPH feet Rate Location/Type
09:15AM 44.2686 -121.1272 315° West 150 173 4,100  Level Seattle Center
09:16AM 44.2911 -121.1739 304° West 197 227 5,500 1,380 Climbing Seattle Center
09:17AM 44.3100 -121.2469 290° West 197 227 6,900 1,380 Climbing Seattle Center
09:18AM 44.3400 -121.3153 302° West 205 236 8,400 1,380 Climbing Seattle Center
09:19AM 44.3274 -121.4251 315° West  Level FlightAware Approximate
09:19AM 44.3817 -121.3750 314° West 211 243 9,800  Level Seattle Center
09:20AM 44.3776 -121.5052 305° West  Level FlightAware Approximate
09:21AM 44.4209 -121.5692 315° West  Level FlightAware Approximate
09:21AM 44.4228 -121.4403 311° West 220 253 11,500  Level Seattle Center
09:22AM 44.4586 -121.5064 307° West 216 249 13,200 1,680 Climbing Seattle Center
09:23AM 44.4958 -121.5669 311° West 208 239 14,900 1,380 Climbing Seattle Center
09:24AM 44.5278 -121.6236 308° West 193 222 16,000 600 Climbing Seattle Center
09:25AM 44.5669 -121.6889 310° West 213 245 16,100  Climbing Seattle Center
09:26AM 44.6108 -121.7639 309° West 240 276 16,100  Level Seattle Center
09:27AM 44.6522 -121.8358 309° West 239 275 16,200 -60 Climbing Seattle Center
09:28AM 44.6908 -121.9056 308° West 237 273 16,000 -780 Descending Seattle Center
09:29AM 44.7389 -121.9878 309° West 253 291 14,700 -1,500 Descending Seattle Center
09:29AM 44.7600 -122.0239 309° West 281 323 14,100 -1,020 Descending Seattle Center
09:30AM 44.7869 -122.0711 309° West 270 311 13,700 -720 Descending Seattle Center
09:31AM 44.8344 -122.1528 309° West 271 312 12,900 -1,140 Descending Seattle Center
09:32AM 44.9106 -122.1878 342° North 257 296 11,500 -1,380 Descending Seattle Center
09:33AM 44.9811 -122.2125 346° North 260 299 10,100 -1,200 Descending Seattle Center
09:34AM 45.0514 -122.2358 347° North 261 300 9,100 -1,020 Descending Seattle Center
09:34AM 45.0703 -122.2411 349° North 251 289 8,800 -1,020 Descending Seattle Center
09:35AM 45.1153 -122.2561 347° North 247 284 8,100 -660 Descending Seattle Center
09:35AM 45.1419 -122.2636 349° North 229 264 8,100  Level Seattle Center
09:36AM 45.1767 -122.2764 345° North 234 269 8,100 -360 Level Seattle Center
09:36AM 45.2061 -122.2894 343° North 227 261 7,700 -1,020 Descending Seattle Center
09:37AM 45.2361 -122.3033 342° North 229 264 7,100 -1,140 Descending Seattle Center
09:37AM 45.2639 -122.3178 340° North 268 308 6,800 -1,020 Descending Seattle Center
09:38AM 45.3069 -122.3372 342° North 261 300 6,100 -1,020 Descending Seattle Center
09:38AM 45.3336 -122.3506 341° North 263 303 5,800 -1,140 Descending Seattle Center
09:39AM 45.3767 -122.3714 341° North 265 305 5,000 -1,320 Descending Seattle Center
09:39AM 45.4058 -122.3853 342° North 267 307 4,500 -1,500 Descending Seattle Center
09:40AM 45.4469 -122.4022 344° North 267 307 3,500 -1,440 Descending Seattle Center
09:40AM 45.4819 -122.4186 342° North 260 299 2,900 -900 Descending Seattle Center
09:41AM 45.5128 -122.4333 342° North 257 296 2,600 -720 Descending Seattle Center
09:41AM 45.5364 -122.4517 331° Northwest 199 229 2,200 -960 Descending Seattle Center